createdAt,value
2022-12-06T00:01:47.027Z,23.40
2022-12-06T00:04:51.028Z,22.30
2022-12-06T00:07:53.668Z,21.23
2022-12-06T00:10:56.454Z,25.10
2022-12-06T00:14:00.825Z,23.47
2022-12-06T00:17:03.447Z,24.47
2022-12-06T00:20:08.988Z,22.60
2022-12-06T00:23:11.610Z,21.70
2022-12-06T00:26:14.499Z,24.77
2022-12-06T00:29:20.205Z,22.80
2022-12-06T00:32:22.848Z,24.37
2022-12-06T00:35:27.054Z,26.27
2022-12-06T00:38:30.790Z,28.47
2022-12-06T00:41:33.617Z,22.20
2022-12-06T00:44:36.223Z,27.17
2022-12-06T00:47:38.828Z,21.33
2022-12-06T00:50:42.813Z,23.87
2022-12-06T00:53:46.002Z,19.80
2022-12-06T00:56:48.600Z,24.87
2022-12-06T00:59:51.209Z,22.93
2022-12-06T01:02:54.005Z,23.70
2022-12-06T01:05:57.985Z,21.20
2022-12-06T01:09:02.212Z,22.93
2022-12-06T01:12:04.991Z,23.20
2022-12-06T01:15:08.714Z,24.57
2022-12-06T01:18:11.382Z,26.47
2022-12-06T01:21:17.716Z,25.70
2022-12-06T01:24:20.357Z,24.70
2022-12-06T01:27:22.988Z,22.93
2022-12-06T01:30:25.699Z,30.00
2022-12-06T01:33:28.381Z,27.17
2022-12-06T01:36:32.644Z,24.67
2022-12-06T01:39:35.301Z,24.43
2022-12-06T01:42:37.921Z,24.87
2022-12-06T01:45:40.644Z,26.20
2022-12-06T01:48:43.339Z,22.97
2022-12-06T01:51:52.369Z,24.17
2022-12-06T01:54:55.325Z,25.37
2022-12-06T01:58:00.930Z,29.03
2022-12-06T02:01:03.626Z,24.43
2022-12-06T02:04:07.192Z,25.30
2022-12-06T02:07:12.951Z,25.73
2022-12-06T02:10:15.593Z,21.00
2022-12-06T02:13:18.410Z,30.27
2022-12-06T02:16:33.186Z,31.47
2022-12-06T02:20:01.458Z,30.83
2022-12-06T02:23:48.131Z,30.40
2022-12-06T02:26:52.905Z,27.67
2022-12-06T02:30:10.874Z,29.13
2022-12-06T02:33:23.589Z,25.93
2022-12-06T02:36:32.096Z,23.87
2022-12-06T02:39:39.261Z,25.63
2022-12-06T02:42:45.657Z,27.00
2022-12-06T02:45:54.247Z,23.63
2022-12-06T02:49:01.166Z,25.90
2022-12-06T02:52:04.072Z,25.80
2022-12-06T02:55:09.692Z,27.93
2022-12-06T02:58:12.667Z,22.87
2022-12-06T03:01:17.330Z,24.50
2022-12-06T03:04:48.894Z,25.00
2022-12-06T03:07:53.086Z,21.93
2022-12-06T03:11:01.453Z,21.40
2022-12-06T03:14:11.010Z,22.80
2022-12-06T03:17:23.884Z,21.23
2022-12-06T03:20:32.243Z,20.40
2022-12-06T03:23:40.074Z,19.17
2022-12-06T03:26:44.916Z,18.67
2022-12-06T03:29:52.337Z,22.87
2022-12-06T03:32:54.996Z,20.90
2022-12-06T03:36:00.139Z,19.03
2022-12-06T03:39:05.629Z,22.57
2022-12-06T03:42:09.566Z,18.77
2022-12-06T03:45:13.302Z,19.53
2022-12-06T03:48:20.887Z,21.97
2022-12-06T03:51:28.258Z,18.17
2022-12-06T03:54:31.016Z,18.10
2022-12-06T03:57:33.764Z,18.20
2022-12-06T04:00:36.392Z,19.13
2022-12-06T04:03:39.264Z,19.03
2022-12-06T04:06:43.304Z,19.87
2022-12-06T04:09:56.405Z,19.93
2022-12-06T04:13:02.053Z,19.67
2022-12-06T04:16:24.962Z,17.70
2022-12-06T04:19:26.649Z,18.37
2022-12-06T04:22:48.004Z,18.57
2022-12-06T04:25:50.606Z,18.00
2022-12-06T04:29:12.352Z,19.33
2022-12-06T04:32:32.640Z,22.30
2022-12-06T04:35:52.830Z,21.20
2022-12-06T04:38:56.943Z,19.90
2022-12-06T04:42:17.606Z,19.40
2022-12-06T04:45:20.223Z,18.60
2022-12-06T04:48:22.943Z,16.07
2022-12-06T04:51:25.799Z,18.20
2022-12-06T04:54:30.223Z,18.40
2022-12-06T04:57:32.867Z,20.10
2022-12-06T05:00:35.507Z,17.23
2022-12-06T05:03:43.814Z,19.67
2022-12-06T05:06:47.042Z,17.77
2022-12-06T05:09:50.995Z,17.93
2022-12-06T05:12:53.670Z,17.17
2022-12-06T05:15:58.450Z,14.70
2022-12-06T05:19:01.131Z,16.80
2022-12-06T05:22:03.982Z,13.87
2022-12-06T05:25:09.260Z,18.43
2022-12-06T05:28:11.887Z,14.60
2022-12-06T05:31:14.913Z,16.47
2022-12-06T05:34:17.578Z,14.30
2022-12-06T05:37:20.233Z,13.33
2022-12-06T05:40:24.245Z,12.83
2022-12-06T05:43:26.969Z,11.37
2022-12-06T05:46:29.686Z,12.20
2022-12-06T05:49:32.329Z,13.97
2022-12-06T05:52:35.089Z,11.87
2022-12-06T05:55:39.097Z,11.60
2022-12-06T05:58:42.073Z,12.23
2022-12-06T06:01:44.797Z,8.97
2022-12-06T06:04:47.487Z,8.20
2022-12-06T06:07:50.247Z,7.50
2022-12-06T06:10:54.395Z,11.57
2022-12-06T06:13:57.020Z,8.90
2022-12-06T06:16:59.655Z,7.50
2022-12-06T06:20:05.510Z,8.00
2022-12-06T06:23:08.340Z,7.83
2022-12-06T06:26:13.307Z,8.47
2022-12-06T06:29:16.108Z,6.97
2022-12-06T06:32:18.724Z,8.07
2022-12-06T06:35:21.357Z,7.67
2022-12-06T06:38:24.048Z,7.67
2022-12-06T06:41:28.037Z,8.37
2022-12-06T06:44:30.660Z,9.40
2022-12-06T06:47:33.281Z,9.87
2022-12-06T06:50:35.953Z,9.00
2022-12-06T06:53:39.181Z,8.30
2022-12-06T06:56:43.638Z,9.13
2022-12-06T06:59:46.482Z,11.47
2022-12-06T07:02:49.156Z,10.37
2022-12-06T07:05:56.157Z,8.73
2022-12-06T07:08:58.934Z,7.73
2022-12-06T07:12:03.155Z,10.93
2022-12-06T07:15:06.405Z,6.63
2022-12-06T07:18:09.063Z,8.03
2022-12-06T07:21:14.845Z,5.87
2022-12-06T07:24:17.817Z,6.60
2022-12-06T07:27:21.805Z,5.13
2022-12-06T07:30:27.589Z,5.60
2022-12-06T07:33:30.389Z,5.13
2022-12-06T07:36:33.517Z,4.80
2022-12-06T07:39:36.125Z,4.20
2022-12-06T07:42:57.486Z,4.50
2022-12-06T07:46:00.217Z,4.23
2022-12-06T07:49:03.091Z,4.23
2022-12-06T07:52:05.848Z,4.13
2022-12-06T07:55:10.470Z,4.70
2022-12-06T07:58:14.465Z,3.60
2022-12-06T08:01:17.172Z,4.30
2022-12-06T08:04:19.902Z,4.03
2022-12-06T08:07:23.166Z,6.20
2022-12-06T08:10:25.809Z,4.83
2022-12-06T08:13:30.213Z,4.90
2022-12-06T08:16:32.932Z,4.00
2022-12-06T08:19:35.622Z,5.60
2022-12-06T08:22:38.457Z,4.20
2022-12-06T08:25:41.122Z,5.10
2022-12-06T08:28:45.117Z,7.00
2022-12-06T08:31:48.272Z,4.77
2022-12-06T08:34:50.951Z,5.57
2022-12-06T08:37:53.584Z,4.70
2022-12-06T08:40:56.163Z,5.30
2022-12-06T08:44:01.783Z,7.17
2022-12-06T08:47:04.673Z,5.47
2022-12-06T08:50:08.597Z,4.83
2022-12-06T08:53:11.332Z,4.93
2022-12-06T08:56:14.064Z,5.30
2022-12-06T08:59:18.556Z,6.87
2022-12-06T09:02:21.264Z,5.63
2022-12-06T09:05:23.937Z,5.87
2022-12-06T09:08:26.625Z,5.33
2022-12-06T09:11:29.320Z,7.53
2022-12-06T09:14:33.267Z,5.87
2022-12-06T09:17:36.962Z,8.27
2022-12-06T09:20:40.906Z,5.93
2022-12-06T09:23:44.267Z,7.03
2022-12-06T09:26:47.565Z,6.50
2022-12-06T09:29:51.563Z,7.03
2022-12-06T09:32:54.191Z,7.60
2022-12-06T09:35:57.959Z,6.33
2022-12-06T09:39:05.335Z,7.77
2022-12-06T09:42:32.398Z,8.13
2022-12-06T09:45:54.495Z,9.63
2022-12-06T09:49:18.614Z,7.40
2022-12-06T09:52:33.422Z,8.43
2022-12-06T09:55:48.210Z,7.73
2022-12-06T09:59:04.126Z,7.47
2022-12-06T10:02:24.830Z,7.60
2022-12-06T10:05:51.775Z,7.37
2022-12-06T10:09:14.432Z,8.63
2022-12-06T10:12:30.247Z,7.57
2022-12-06T10:15:45.167Z,8.23
2022-12-06T10:19:01.990Z,8.00
2022-12-06T10:22:14.120Z,10.60
2022-12-06T10:25:23.719Z,7.63
2022-12-06T10:28:43.893Z,8.87
2022-12-06T10:31:56.448Z,8.87
2022-12-06T10:35:13.601Z,8.53
2022-12-06T10:38:28.175Z,8.10
2022-12-06T10:41:36.157Z,8.57
2022-12-06T10:44:45.522Z,9.10
2022-12-06T10:47:47.255Z,8.33
2022-12-06T10:50:59.408Z,8.17
2022-12-06T10:54:11.731Z,11.00
2022-12-06T10:57:20.989Z,8.37
2022-12-06T11:00:25.476Z,9.13
2022-12-06T11:03:33.201Z,11.97
2022-12-06T11:06:42.461Z,9.90
2022-12-06T11:09:48.490Z,10.40
2022-12-06T11:12:57.849Z,11.77
2022-12-06T11:16:06.526Z,10.30
2022-12-06T11:19:21.434Z,11.57
2022-12-06T11:22:34.862Z,11.73
2022-12-06T11:25:54.165Z,11.47
2022-12-06T11:29:05.758Z,13.77
2022-12-06T11:32:09.149Z,14.03
2022-12-06T11:35:13.771Z,16.47
2022-12-06T11:38:18.308Z,14.27
2022-12-06T11:41:24.353Z,14.10
2022-12-06T11:44:29.474Z,14.50
2022-12-06T11:47:32.238Z,17.10
2022-12-06T11:50:37.472Z,17.03
2022-12-06T11:53:46.395Z,15.50
2022-12-06T11:56:49.197Z,19.17
2022-12-06T12:00:16.573Z,16.23
2022-12-06T12:03:29.454Z,14.03
2022-12-06T12:06:32.202Z,16.47
2022-12-06T12:09:37.996Z,20.60
2022-12-06T12:13:03.721Z,15.73
2022-12-06T12:16:14.907Z,20.17
2022-12-06T12:19:31.960Z,30.03
2022-12-06T12:22:37.164Z,46.77
2022-12-06T12:25:42.320Z,18.10
2022-12-06T12:28:47.229Z,18.90
2022-12-06T12:31:56.080Z,15.17
2022-12-06T12:34:59.308Z,17.17
2022-12-06T12:38:05.736Z,16.93
2022-12-06T12:41:24.654Z,15.67
2022-12-06T12:44:37.624Z,14.83
2022-12-06T12:47:56.080Z,16.93
2022-12-06T12:51:01.106Z,22.40
2022-12-06T12:54:05.733Z,19.70
2022-12-06T12:57:14.461Z,20.50
2022-12-06T13:00:19.312Z,17.50
2022-12-06T13:06:51.992Z,17.57
2022-12-06T13:10:02.171Z,28.73
2022-12-06T13:13:13.845Z,16.77
2022-12-06T13:16:22.205Z,16.17
2022-12-06T13:19:31.990Z,20.10
2022-12-06T13:22:38.907Z,32.30
2022-12-06T13:25:46.305Z,19.00
2022-12-06T13:28:54.271Z,29.50
2022-12-06T13:32:00.908Z,18.20
2022-12-06T13:35:07.407Z,17.50
2022-12-06T13:38:26.998Z,15.97
2022-12-06T13:42:11.793Z,14.87
2022-12-06T13:45:42.202Z,13.30
2022-12-06T13:48:52.597Z,11.77
2022-12-06T13:51:55.236Z,12.60
2022-12-06T13:54:57.929Z,13.40
2022-12-06T13:58:41.526Z,11.90
2022-12-06T14:01:47.141Z,13.97
2022-12-06T14:04:49.864Z,12.80
2022-12-06T14:07:58.435Z,32.77
2022-12-06T14:11:23.729Z,11.53
2022-12-06T14:14:26.654Z,28.10
2022-12-06T14:18:01.565Z,30.03
2022-12-06T14:21:01.462Z,19.20
2022-12-06T14:24:04.458Z,17.17
2022-12-06T14:27:12.738Z,14.33
2022-12-06T14:30:25.179Z,18.00
2022-12-06T14:33:30.009Z,26.27
2022-12-06T14:36:35.297Z,42.40
2022-12-06T14:39:38.007Z,13.53
2022-12-06T14:42:57.940Z,27.80
2022-12-06T14:46:04.262Z,26.83
2022-12-06T14:49:30.797Z,34.63
2022-12-06T14:52:33.438Z,36.77
2022-12-06T14:55:37.883Z,21.33
2022-12-06T14:58:42.763Z,35.40
2022-12-06T15:01:49.195Z,23.13
2022-12-06T15:04:53.383Z,14.87
2022-12-06T15:07:56.161Z,12.23
2022-12-06T15:11:01.037Z,11.07
2022-12-06T15:14:15.264Z,11.67
2022-12-06T15:17:19.966Z,9.30
2022-12-06T15:20:24.385Z,10.17
2022-12-06T15:23:35.834Z,11.00
2022-12-06T15:26:38.479Z,9.03
2022-12-06T15:29:41.100Z,10.07
2022-12-06T15:32:43.782Z,8.50
2022-12-06T15:35:47.853Z,9.23
2022-12-06T15:38:50.685Z,11.07
2022-12-06T15:41:54.428Z,9.93
2022-12-06T15:44:57.006Z,9.50
2022-12-06T15:47:59.610Z,9.73
2022-12-06T15:51:10.290Z,8.70
2022-12-06T15:54:17.771Z,11.77
2022-12-06T15:57:20.423Z,10.03
2022-12-06T16:00:23.481Z,10.93
2022-12-06T16:03:26.390Z,9.50
2022-12-06T16:06:31.023Z,12.50
2022-12-06T16:09:33.644Z,9.43
2022-12-06T16:12:56.990Z,9.47
2022-12-06T16:15:59.676Z,7.63
2022-12-06T16:19:02.928Z,7.50
2022-12-06T16:22:08.770Z,8.73
2022-12-06T16:25:10.397Z,8.83
2022-12-06T16:28:14.266Z,8.83
2022-12-06T16:31:17.010Z,7.77
2022-12-06T16:34:19.723Z,8.97
2022-12-06T16:37:23.704Z,8.47
2022-12-06T16:40:28.853Z,8.67
2022-12-06T16:43:31.495Z,9.23
2022-12-06T16:46:35.998Z,8.10
2022-12-06T16:49:49.295Z,8.13
2022-12-06T16:52:54.186Z,6.23
2022-12-06T16:55:56.799Z,8.50
2022-12-06T16:58:59.880Z,8.63
2022-12-06T17:02:02.544Z,7.20
2022-12-06T17:05:07.240Z,6.27
2022-12-06T17:08:11.409Z,8.13
2022-12-06T17:11:35.867Z,12.00
2022-12-06T17:14:38.997Z,15.60
2022-12-06T17:17:42.134Z,14.20
2022-12-06T17:20:44.754Z,8.87
2022-12-06T17:23:49.317Z,9.60
2022-12-06T17:26:53.911Z,7.20
2022-12-06T17:29:56.589Z,7.57
2022-12-06T17:32:59.189Z,7.87
2022-12-06T17:36:06.136Z,10.67
2022-12-06T17:39:11.311Z,14.77
2022-12-06T17:42:31.805Z,16.50
2022-12-06T17:45:34.546Z,18.83
2022-12-06T17:48:43.018Z,10.73
2022-12-06T17:51:47.428Z,10.90
2022-12-06T17:54:51.456Z,7.43
2022-12-06T17:57:54.045Z,9.20
2022-12-06T18:00:59.583Z,10.10
2022-12-06T18:04:03.672Z,11.07
2022-12-06T18:07:06.475Z,12.10
2022-12-06T18:10:11.669Z,12.57
2022-12-06T18:13:14.284Z,9.60
2022-12-06T18:16:18.708Z,9.33
2022-12-06T18:19:22.289Z,9.40
2022-12-06T18:22:25.072Z,10.57
2022-12-06T18:25:29.048Z,10.23
2022-12-06T18:28:32.191Z,8.90
2022-12-06T18:31:36.500Z,9.80
2022-12-06T18:34:39.244Z,12.40
2022-12-06T18:37:42.032Z,10.63
2022-12-06T18:40:46.037Z,13.27
2022-12-06T18:43:48.668Z,12.80
2022-12-06T18:46:51.358Z,13.70
2022-12-06T18:49:53.975Z,14.60
2022-12-06T18:52:56.615Z,10.03
2022-12-06T18:56:00.654Z,12.83
2022-12-06T18:59:05.378Z,9.67
2022-12-06T19:02:08.041Z,11.13
2022-12-06T19:05:10.723Z,8.77
2022-12-06T19:08:13.393Z,9.10
2022-12-06T19:11:20.891Z,8.27
2022-12-06T19:14:24.006Z,13.47
2022-12-06T19:17:26.648Z,14.27
2022-12-06T19:20:29.306Z,14.07
2022-12-06T19:23:31.979Z,13.20
2022-12-06T19:26:35.925Z,14.20
2022-12-06T19:29:38.566Z,12.13
2022-12-06T19:32:41.222Z,11.43
2022-12-06T19:35:43.840Z,12.37
2022-12-06T19:38:46.924Z,11.57
2022-12-06T19:42:08.317Z,12.63
2022-12-06T19:45:11.283Z,11.27
2022-12-06T19:48:14.569Z,9.33
2022-12-06T19:51:17.901Z,9.03
2022-12-06T19:54:22.760Z,8.73
2022-12-06T19:57:26.749Z,11.53
2022-12-06T20:00:29.526Z,13.27
2022-12-06T20:03:32.182Z,12.80
2022-12-06T20:06:36.519Z,22.50
2022-12-06T20:09:39.493Z,12.03
2022-12-06T20:12:43.448Z,14.77
2022-12-06T20:15:46.078Z,38.10
2022-12-06T20:18:48.705Z,17.03
2022-12-06T20:21:51.583Z,12.00
2022-12-06T20:24:54.223Z,10.80
2022-12-06T20:28:02.193Z,11.83
2022-12-06T20:31:11.021Z,10.63
2022-12-06T20:34:15.539Z,11.63
2022-12-06T20:37:18.673Z,11.27
2022-12-06T20:40:23.557Z,15.17
2022-12-06T20:43:30.863Z,13.57
2022-12-06T20:46:33.500Z,13.33
2022-12-06T20:49:36.492Z,11.73
2022-12-06T20:52:39.156Z,10.30
2022-12-06T20:55:41.760Z,10.23
2022-12-06T20:58:46.839Z,10.60
2022-12-06T21:01:49.841Z,10.47
2022-12-06T21:04:52.487Z,12.67
2022-12-06T21:07:55.177Z,11.70
2022-12-06T21:11:24.700Z,9.13
2022-12-06T21:14:23.148Z,11.93
2022-12-06T21:17:25.777Z,14.57
2022-12-06T21:20:28.394Z,11.03
2022-12-06T21:23:32.009Z,10.37
2022-12-06T21:26:35.865Z,10.13
2022-12-06T21:29:42.492Z,11.00
2022-12-06T21:32:45.100Z,9.77
2022-12-06T21:35:48.752Z,12.27
2022-12-06T21:38:51.617Z,11.77
2022-12-06T21:41:54.704Z,12.27
2022-12-06T21:44:58.683Z,16.63
2022-12-06T21:48:01.377Z,11.43
2022-12-06T21:51:07.044Z,11.50
2022-12-06T21:54:09.704Z,13.23
2022-12-06T21:57:12.329Z,11.83
2022-12-06T22:00:17.744Z,13.67
2022-12-06T22:03:23.149Z,12.53
2022-12-06T22:06:26.529Z,9.57
2022-12-06T22:09:29.161Z,15.60
2022-12-06T22:12:31.922Z,14.47
2022-12-06T22:15:36.011Z,13.93
2022-12-06T22:18:44.909Z,17.10
2022-12-06T22:21:48.681Z,11.60
2022-12-06T22:24:51.312Z,17.87
2022-12-06T22:27:54.721Z,13.70
2022-12-06T22:31:10.654Z,13.73
2022-12-06T22:34:13.533Z,15.73
2022-12-06T22:37:16.305Z,15.60
2022-12-06T22:40:19.113Z,14.33
2022-12-06T22:43:21.745Z,18.53
2022-12-06T22:46:27.212Z,18.37
2022-12-06T22:49:29.821Z,18.30
2022-12-06T22:52:32.459Z,15.90
2022-12-06T22:55:35.195Z,19.23
2022-12-06T22:58:38.398Z,15.40
2022-12-06T23:01:42.420Z,15.00
2022-12-06T23:04:45.140Z,20.70
2022-12-06T23:07:48.269Z,18.90
2022-12-06T23:10:50.948Z,20.13
2022-12-06T23:13:54.732Z,26.90
2022-12-06T23:16:59.437Z,21.30
2022-12-06T23:20:02.278Z,21.90
2022-12-06T23:23:05.074Z,24.67
2022-12-06T23:26:09.846Z,23.07
2022-12-06T23:29:12.591Z,26.07
2022-12-06T23:32:16.696Z,29.13
2022-12-06T23:35:19.278Z,25.37
2022-12-06T23:38:21.900Z,29.20
2022-12-06T23:41:26.850Z,21.20
2022-12-06T23:44:29.489Z,22.57
2022-12-06T23:47:33.507Z,23.50
2022-12-06T23:50:36.140Z,22.93
2022-12-06T23:53:39.650Z,23.43
2022-12-06T23:56:43.685Z,25.53
2022-12-06T23:59:46.311Z,23.70
